createdAt,value
2022-08-03T00:01:54.825Z,60.90
2022-08-03T00:04:22.622Z,60.90
2022-08-03T00:07:01.950Z,60.90
2022-08-03T00:09:35.752Z,60.90
2022-08-03T00:12:04.232Z,60.90
2022-08-03T00:14:33.340Z,60.90
2022-08-03T00:17:01.138Z,60.90
2022-08-03T00:19:29.070Z,60.90
2022-08-03T00:21:56.861Z,60.90
2022-08-03T00:24:24.593Z,60.90
2022-08-03T00:26:52.877Z,60.80
2022-08-03T00:29:20.636Z,60.90
2022-08-03T00:31:52.500Z,61.00
2022-08-03T00:34:26.142Z,60.90
2022-08-03T00:37:08.694Z,60.80
2022-08-03T00:39:36.412Z,60.80
2022-08-03T00:42:04.357Z,60.80
2022-08-03T00:44:32.397Z,60.90
2022-08-03T00:47:01.492Z,60.80
2022-08-03T00:49:29.322Z,60.80
2022-08-03T00:51:57.565Z,60.90
2022-08-03T00:54:26.638Z,60.90
2022-08-03T00:57:00.229Z,60.90
2022-08-03T00:59:28.620Z,60.90
2022-08-03T01:01:56.533Z,60.90
2022-08-03T01:04:25.616Z,60.90
2022-08-03T01:07:02.193Z,60.90
2022-08-03T01:09:39.045Z,60.90
2022-08-03T01:12:15.332Z,60.90
2022-08-03T01:14:51.214Z,60.90
2022-08-03T01:17:25.210Z,61.00
2022-08-03T01:20:01.951Z,60.90
2022-08-03T01:23:00.900Z,60.90
2022-08-03T01:25:47.838Z,60.90
2022-08-03T01:28:34.129Z,61.00
2022-08-03T01:31:08.998Z,60.90
2022-08-03T01:33:41.397Z,61.00
2022-08-03T01:36:14.628Z,61.00
2022-08-03T01:38:45.210Z,60.90
2022-08-03T01:41:19.630Z,61.00
2022-08-03T01:44:27.697Z,60.90
2022-08-03T01:46:47.614Z,60.90
2022-08-03T01:49:17.948Z,61.00
2022-08-03T01:52:03.042Z,60.90
2022-08-03T01:54:35.724Z,60.90
2022-08-03T01:57:04.384Z,61.00
2022-08-03T01:59:35.490Z,61.00
2022-08-03T02:02:16.033Z,61.00
2022-08-03T02:04:56.585Z,61.00
2022-08-03T02:07:25.698Z,61.00
2022-08-03T02:09:55.089Z,61.00
2022-08-03T02:12:25.175Z,61.00
2022-08-03T02:14:53.548Z,61.00
2022-08-03T02:17:39.304Z,61.00
2022-08-03T02:20:09.733Z,61.00
2022-08-03T02:22:40.206Z,61.00
2022-08-03T02:25:09.475Z,61.00
2022-08-03T02:27:43.495Z,61.00
2022-08-03T02:30:13.338Z,61.00
2022-08-03T02:32:47.942Z,61.00
2022-08-03T02:35:19.134Z,61.00
2022-08-03T02:37:52.654Z,61.00
2022-08-03T02:40:21.901Z,61.10
2022-08-03T02:42:53.349Z,61.10
2022-08-03T02:45:21.988Z,61.10
2022-08-03T02:47:56.388Z,61.10
2022-08-03T02:50:25.985Z,61.10
2022-08-03T02:52:54.877Z,61.10
2022-08-03T02:55:23.767Z,61.10
2022-08-03T02:57:52.337Z,61.10
2022-08-03T03:00:27.963Z,61.10
2022-08-03T03:03:00.533Z,61.10
2022-08-03T03:05:54.490Z,61.10
2022-08-03T03:08:20.891Z,61.20
2022-08-03T03:10:55.971Z,61.10
2022-08-03T03:13:24.093Z,61.20
2022-08-03T03:15:53.265Z,61.20
2022-08-03T03:18:23.432Z,61.20
2022-08-03T03:20:52.720Z,61.20
2022-08-03T03:23:22.284Z,61.20
2022-08-03T03:25:51.017Z,61.20
2022-08-03T03:28:18.886Z,61.20
2022-08-03T03:30:52.618Z,61.20
2022-08-03T03:33:23.154Z,61.30
2022-08-03T03:35:51.706Z,61.30
2022-08-03T03:38:19.672Z,61.20
2022-08-03T03:40:47.833Z,61.30
2022-08-03T03:43:15.768Z,61.30
2022-08-03T03:45:44.068Z,61.30
2022-08-03T03:48:12.263Z,61.30
2022-08-03T03:50:41.649Z,61.30
2022-08-03T03:53:11.242Z,61.40
2022-08-03T03:55:59.274Z,61.40
2022-08-03T03:58:27.765Z,61.40
2022-08-03T04:00:55.582Z,61.40
2022-08-03T04:03:23.410Z,61.40
2022-08-03T04:06:10.395Z,61.30
2022-08-03T04:08:55.816Z,61.50
2022-08-03T04:11:29.207Z,61.40
2022-08-03T04:14:02.030Z,61.40
2022-08-03T04:16:33.322Z,61.40
2022-08-03T04:19:10.174Z,61.50
2022-08-03T04:21:44.203Z,61.40
2022-08-03T04:24:14.469Z,61.50
2022-08-03T04:26:44.152Z,61.50
2022-08-03T04:29:12.690Z,61.50
2022-08-03T04:31:41.843Z,61.50
2022-08-03T04:34:10.190Z,61.50
2022-08-03T04:36:48.675Z,61.50
2022-08-03T04:39:24.165Z,61.60
2022-08-03T04:42:08.242Z,61.50
2022-08-03T04:44:40.328Z,61.60
2022-08-03T04:47:08.444Z,61.60
2022-08-03T04:49:38.121Z,61.60
2022-08-03T04:52:09.752Z,61.60
2022-08-03T04:54:41.264Z,61.60
2022-08-03T04:57:09.058Z,61.70
2022-08-03T04:59:39.224Z,61.60
2022-08-03T05:02:08.826Z,61.70
2022-08-03T05:04:37.957Z,61.70
2022-08-03T05:07:12.394Z,61.70
2022-08-03T05:09:49.731Z,61.70
2022-08-03T05:12:18.683Z,61.70
2022-08-03T05:14:46.434Z,61.80
2022-08-03T05:17:14.630Z,61.90
2022-08-03T05:19:42.375Z,61.90
2022-08-03T05:22:11.417Z,62.00
2022-08-03T05:24:39.166Z,62.10
2022-08-03T05:27:06.972Z,62.10
2022-08-03T05:29:34.721Z,62.10
2022-08-03T05:32:07.718Z,62.20
2022-08-03T05:34:36.010Z,62.30
2022-08-03T05:37:03.988Z,62.40
2022-08-03T05:39:33.033Z,62.40
2022-08-03T05:42:01.142Z,62.40
2022-08-03T05:44:29.338Z,62.40
2022-08-03T05:46:58.520Z,62.50
2022-08-03T05:49:26.335Z,62.70
2022-08-03T05:52:00.457Z,62.70
2022-08-03T05:54:55.842Z,62.70
2022-08-03T05:57:25.466Z,62.70
2022-08-03T05:59:55.772Z,62.60
2022-08-03T06:02:26.645Z,62.60
2022-08-03T06:04:54.553Z,62.60
2022-08-03T06:07:22.438Z,62.60
2022-08-03T06:10:35.817Z,62.70
2022-08-03T06:12:41.179Z,62.80
2022-08-03T06:15:11.532Z,63.00
2022-08-03T06:17:47.129Z,63.00
2022-08-03T06:20:17.073Z,63.10
2022-08-03T06:22:50.865Z,63.10
2022-08-03T06:25:30.727Z,63.20
2022-08-03T06:27:59.753Z,63.10
2022-08-03T06:30:27.546Z,63.10
2022-08-03T06:32:55.318Z,63.30
2022-08-03T06:35:23.296Z,63.40
2022-08-03T06:37:53.222Z,63.60
2022-08-03T06:40:28.418Z,63.70
2022-08-03T06:42:57.832Z,63.70
2022-08-03T06:45:25.620Z,63.80
2022-08-03T06:48:04.297Z,63.90
2022-08-03T06:50:32.351Z,63.90
2022-08-03T06:53:00.416Z,64.00
2022-08-03T06:55:28.153Z,64.00
2022-08-03T06:57:59.840Z,64.00
2022-08-03T07:00:31.551Z,64.10
2022-08-03T07:02:59.340Z,64.10
2022-08-03T07:05:27.346Z,64.10
2022-08-03T07:07:56.615Z,64.20
2022-08-03T07:10:24.558Z,64.30
2022-08-03T07:12:56.555Z,64.30
2022-08-03T07:15:54.181Z,64.40
2022-08-03T07:18:13.838Z,64.40
2022-08-03T07:20:42.177Z,64.40
2022-08-03T07:23:11.970Z,64.50
2022-08-03T07:25:47.010Z,64.60
2022-08-03T07:28:14.758Z,64.60
2022-08-03T07:30:43.828Z,64.60
2022-08-03T07:33:11.562Z,64.60
2022-08-03T07:35:39.368Z,64.60
2022-08-03T07:38:07.360Z,64.70
2022-08-03T07:40:35.230Z,64.70
2022-08-03T07:43:03.706Z,64.70
2022-08-03T07:45:33.574Z,64.70
2022-08-03T07:48:02.643Z,64.70
2022-08-03T07:50:30.404Z,64.60
2022-08-03T07:52:59.656Z,64.60
2022-08-03T07:55:28.675Z,64.60
2022-08-03T07:58:04.641Z,64.60
2022-08-03T08:00:33.022Z,64.60
2022-08-03T08:03:02.668Z,64.50
2022-08-03T08:05:30.469Z,64.60
2022-08-03T08:07:58.214Z,64.60
2022-08-03T08:10:25.990Z,64.60
2022-08-03T08:12:53.736Z,64.70
2022-08-03T08:15:21.553Z,64.70
2022-08-03T08:17:51.032Z,64.70
2022-08-03T08:20:25.205Z,64.80
2022-08-03T08:22:57.916Z,64.70
2022-08-03T08:25:26.205Z,64.80
2022-08-03T08:28:31.106Z,64.80
2022-08-03T08:30:42.334Z,64.80
2022-08-03T08:33:22.806Z,64.80
2022-08-03T08:35:54.256Z,64.60
2022-08-03T08:38:22.483Z,64.40
2022-08-03T08:40:50.907Z,64.10
2022-08-03T08:43:18.725Z,63.80
2022-08-03T08:45:47.730Z,63.50
2022-08-03T08:48:16.466Z,63.40
2022-08-03T08:50:45.001Z,63.20
2022-08-03T08:53:17.519Z,63.70
2022-08-03T08:55:58.438Z,62.60
2022-08-03T08:58:30.723Z,62.20
2022-08-03T09:00:58.908Z,61.90
2022-08-03T09:03:29.937Z,61.60
2022-08-03T09:06:00.510Z,61.50
2022-08-03T09:08:30.164Z,61.20
2022-08-03T09:10:57.943Z,61.10
2022-08-03T09:13:26.150Z,61.00
2022-08-03T09:16:13.180Z,60.80
2022-08-03T09:18:41.775Z,60.70
2022-08-03T09:21:31.809Z,60.60
2022-08-03T09:24:05.192Z,60.20
2022-08-03T09:26:36.234Z,59.90
2022-08-03T09:29:11.182Z,59.70
2022-08-03T09:31:43.538Z,59.50
2022-08-03T09:34:14.059Z,59.30
2022-08-03T09:36:43.810Z,59.10
2022-08-03T09:39:14.658Z,59.00
2022-08-03T09:41:44.333Z,58.90
2022-08-03T09:44:24.618Z,58.80
2022-08-03T09:46:56.006Z,58.70
2022-08-03T09:49:25.059Z,58.60
2022-08-03T09:52:31.606Z,58.60
2022-08-03T09:54:43.691Z,58.60
2022-08-03T09:57:23.149Z,58.60
2022-08-03T09:59:53.940Z,58.50
2022-08-03T10:02:40.894Z,58.40
2022-08-03T10:05:10.689Z,58.40
2022-08-03T10:07:48.742Z,58.30
2022-08-03T10:10:28.820Z,58.30
2022-08-03T10:13:00.854Z,58.30
2022-08-03T10:16:21.277Z,58.30
2022-08-03T10:18:16.869Z,58.20
2022-08-03T10:20:50.490Z,58.20
2022-08-03T10:23:19.945Z,58.20
2022-08-03T10:25:53.527Z,58.10
2022-08-03T10:28:22.853Z,58.00
2022-08-03T10:30:52.075Z,58.00
2022-08-03T10:33:50.926Z,58.00
2022-08-03T10:36:10.201Z,57.90
2022-08-03T10:38:41.193Z,57.90
2022-08-03T10:41:11.687Z,57.90
2022-08-03T10:43:48.856Z,57.90
2022-08-03T10:46:18.649Z,57.90
2022-08-03T10:48:47.308Z,57.90
2022-08-03T10:51:15.314Z,58.00
2022-08-03T10:53:55.324Z,58.00
2022-08-03T10:57:05.633Z,58.00
2022-08-03T11:00:06.052Z,58.10
2022-08-03T11:03:06.309Z,58.20
2022-08-03T11:05:37.664Z,58.30
2022-08-03T11:08:26.145Z,58.50
2022-08-03T11:10:56.077Z,58.60
2022-08-03T11:13:28.257Z,58.70
2022-08-03T11:16:00.070Z,58.90
2022-08-03T11:18:30.203Z,59.00
2022-08-03T11:20:59.613Z,59.10
2022-08-03T11:24:04.210Z,59.20
2022-08-03T11:26:33.786Z,59.40
2022-08-03T11:29:30.624Z,59.50
2022-08-03T11:31:58.468Z,59.60
2022-08-03T11:34:26.796Z,59.70
2022-08-03T11:37:25.193Z,59.80
2022-08-03T11:39:56.939Z,59.90
2022-08-03T11:42:41.291Z,59.90
2022-08-03T11:45:13.504Z,60.10
2022-08-03T11:47:50.267Z,60.20
2022-08-03T11:50:21.060Z,60.30
2022-08-03T11:52:49.950Z,60.40
2022-08-03T11:55:20.346Z,60.50
2022-08-03T11:59:16.560Z,60.70
2022-08-03T12:00:38.181Z,60.70
2022-08-03T12:03:07.845Z,60.80
2022-08-03T12:05:51.671Z,60.90
2022-08-03T12:08:30.291Z,61.00
2022-08-03T12:11:00.011Z,61.10
2022-08-03T12:14:36.754Z,61.10
2022-08-03T12:16:28.463Z,61.20
2022-08-03T12:18:57.749Z,61.30
2022-08-03T12:21:25.762Z,61.30
2022-08-03T12:23:58.897Z,61.40
2022-08-03T12:26:27.027Z,61.60
2022-08-03T12:28:54.782Z,61.60
2022-08-03T12:31:22.548Z,61.60
2022-08-03T12:34:00.074Z,61.60
2022-08-03T12:36:30.791Z,61.70
2022-08-03T12:39:02.308Z,61.70
2022-08-03T12:41:33.963Z,61.80
2022-08-03T12:44:03.236Z,61.90
2022-08-03T12:46:33.164Z,61.90
2022-08-03T12:49:07.598Z,62.00
2022-08-03T12:51:37.497Z,62.00
2022-08-03T12:54:06.525Z,62.10
2022-08-03T12:56:34.438Z,62.00
2022-08-03T12:59:02.242Z,62.10
2022-08-03T13:01:37.978Z,62.20
2022-08-03T13:04:33.715Z,62.20
2022-08-03T13:07:03.423Z,62.30
2022-08-03T13:09:41.354Z,62.30
2022-08-03T13:12:11.030Z,62.40
2022-08-03T13:14:38.872Z,62.40
2022-08-03T13:17:07.316Z,62.50
2022-08-03T13:19:37.222Z,62.50
2022-08-03T13:22:12.334Z,62.60
2022-08-03T13:24:40.201Z,62.60
2022-08-03T13:27:23.315Z,62.60
2022-08-03T13:29:55.770Z,62.70
2022-08-03T13:32:24.035Z,62.70
2022-08-03T13:34:53.244Z,62.70
2022-08-03T13:37:21.395Z,62.70
2022-08-03T13:39:59.617Z,62.70
2022-08-03T13:42:30.460Z,62.70
2022-08-03T13:44:58.740Z,62.70
2022-08-03T13:47:26.624Z,62.70
2022-08-03T13:50:01.941Z,62.70
2022-08-03T13:52:32.705Z,62.70
2022-08-03T13:55:00.757Z,62.70
2022-08-03T13:58:02.506Z,62.70
2022-08-03T14:00:28.169Z,62.70
2022-08-03T14:03:03.893Z,62.70
2022-08-03T14:05:35.569Z,62.70
2022-08-03T14:08:05.555Z,62.70
2022-08-03T14:10:35.456Z,62.70
2022-08-03T14:13:03.364Z,62.70
2022-08-03T14:15:31.304Z,62.80
2022-08-03T14:17:59.127Z,62.80
2022-08-03T14:20:38.821Z,62.70
2022-08-03T14:23:16.673Z,62.90
2022-08-03T14:25:50.222Z,62.90
2022-08-03T14:28:20.558Z,62.90
2022-08-03T14:30:48.545Z,62.80
2022-08-03T14:33:16.681Z,63.00
2022-08-03T14:35:44.513Z,63.00
2022-08-03T14:38:12.240Z,63.00
2022-08-03T14:40:41.429Z,63.00
2022-08-03T14:43:09.202Z,63.00
2022-08-03T14:45:37.011Z,63.00
2022-08-03T14:50:30.491Z,63.10
2022-08-03T14:50:55.031Z,63.10
2022-08-03T14:53:22.813Z,63.10
2022-08-03T14:55:53.217Z,63.10
2022-08-03T14:58:22.078Z,63.10
2022-08-03T15:00:51.209Z,63.10
2022-08-03T15:03:22.964Z,63.20
2022-08-03T15:05:51.215Z,63.20
2022-08-03T15:08:19.014Z,63.20
2022-08-03T15:10:46.852Z,63.10
2022-08-03T15:13:19.322Z,63.10
2022-08-03T15:15:47.975Z,64.00
2022-08-03T15:18:15.826Z,63.20
2022-08-03T15:20:45.547Z,63.20
2022-08-03T15:23:15.198Z,63.30
2022-08-03T15:26:29.611Z,63.30
2022-08-03T15:28:32.388Z,63.30
2022-08-03T15:31:00.175Z,63.40
2022-08-03T15:33:28.020Z,63.40
2022-08-03T15:35:56.109Z,63.40
2022-08-03T15:38:25.830Z,63.50
2022-08-03T15:40:54.332Z,63.50
2022-08-03T15:43:22.562Z,63.50
2022-08-03T15:46:19.022Z,63.50
2022-08-03T15:48:39.569Z,63.60
2022-08-03T15:51:07.828Z,63.50
2022-08-03T15:53:36.463Z,63.60
2022-08-03T15:56:10.438Z,63.70
2022-08-03T15:59:09.341Z,63.60
2022-08-03T16:01:29.939Z,63.70
2022-08-03T16:03:57.795Z,63.70
2022-08-03T16:06:35.522Z,63.70
2022-08-03T16:09:05.190Z,63.80
2022-08-03T16:11:33.113Z,63.80
2022-08-03T16:14:12.905Z,63.80
2022-08-03T16:16:50.493Z,63.80
2022-08-03T16:19:18.366Z,63.80
2022-08-03T16:21:48.875Z,63.80
2022-08-03T16:24:19.952Z,63.80
2022-08-03T16:26:55.805Z,63.80
2022-08-03T16:29:24.153Z,63.80
2022-08-03T16:31:53.709Z,63.80
2022-08-03T16:34:21.930Z,63.80
2022-08-03T16:36:49.813Z,63.80
2022-08-03T16:39:17.655Z,63.70
2022-08-03T16:41:54.348Z,64.60
2022-08-03T16:44:29.611Z,63.70
2022-08-03T16:46:58.901Z,63.70
2022-08-03T16:49:54.012Z,63.70
2022-08-03T16:52:16.587Z,63.70
2022-08-03T16:54:50.689Z,63.70
2022-08-03T16:57:56.572Z,63.70
2022-08-03T17:00:11.642Z,63.60
2022-08-03T17:02:48.429Z,63.70
2022-08-03T17:05:16.260Z,63.60
2022-08-03T17:07:50.693Z,63.60
2022-08-03T17:10:27.061Z,63.60
2022-08-03T17:12:55.642Z,63.60
2022-08-03T17:15:38.247Z,63.60
2022-08-03T17:18:18.065Z,63.60
2022-08-03T17:20:50.859Z,63.70
2022-08-03T17:23:35.372Z,63.80
2022-08-03T17:26:09.778Z,63.80
2022-08-03T17:28:50.675Z,63.80
2022-08-03T17:31:31.190Z,63.90
2022-08-03T17:34:04.489Z,63.90
2022-08-03T17:37:02.219Z,64.00
2022-08-03T17:39:41.789Z,64.10
2022-08-03T17:42:29.417Z,64.20
2022-08-03T17:44:58.140Z,64.40
2022-08-03T17:47:41.331Z,64.50
2022-08-03T17:50:25.254Z,64.70
2022-08-03T17:53:07.641Z,64.80
2022-08-03T17:55:55.541Z,64.90
2022-08-03T17:58:36.343Z,65.00
2022-08-03T18:02:02.672Z,65.20
2022-08-03T18:04:12.578Z,65.40
2022-08-03T18:06:56.088Z,65.60
2022-08-03T18:10:06.752Z,65.60
2022-08-03T18:12:25.808Z,65.60
2022-08-03T18:15:01.160Z,65.60
2022-08-03T18:17:55.024Z,65.60
2022-08-03T18:20:31.027Z,65.50
2022-08-03T18:23:05.599Z,65.60
2022-08-03T18:25:38.295Z,65.50
2022-08-03T18:28:18.774Z,65.40
2022-08-03T18:30:53.936Z,65.30
2022-08-03T18:34:16.800Z,65.10
2022-08-03T18:36:18.091Z,65.10
2022-08-03T18:38:53.823Z,64.90
2022-08-03T18:41:32.555Z,64.80
2022-08-03T18:44:08.222Z,64.60
2022-08-03T18:46:48.505Z,64.60
2022-08-03T18:49:25.482Z,64.40
2022-08-03T18:52:03.660Z,64.20
2022-08-03T18:54:45.850Z,64.00
2022-08-03T18:57:38.127Z,63.90
2022-08-03T19:00:10.548Z,63.70
2022-08-03T19:02:48.676Z,63.50
2022-08-03T19:05:20.312Z,63.40
2022-08-03T19:11:00.561Z,63.10
2022-08-03T19:13:36.602Z,62.90
2022-08-03T19:16:08.566Z,62.80
2022-08-03T19:18:38.510Z,63.50
2022-08-03T19:21:15.745Z,62.60
2022-08-03T19:23:47.189Z,62.40
2022-08-03T19:26:30.125Z,62.30
2022-08-03T19:28:59.847Z,62.20
2022-08-03T19:31:30.760Z,62.10
2022-08-03T19:34:17.857Z,62.10
2022-08-03T19:36:46.742Z,62.00
2022-08-03T19:39:17.477Z,61.90
2022-08-03T19:41:51.803Z,61.80
2022-08-03T19:44:26.143Z,62.60
2022-08-03T19:47:01.706Z,61.70
2022-08-03T19:49:59.957Z,61.70
2022-08-03T19:52:31.575Z,61.60
2022-08-03T19:55:01.284Z,61.50
2022-08-03T19:57:31.701Z,61.40
2022-08-03T20:00:03.535Z,61.20
2022-08-03T20:02:33.114Z,61.10
2022-08-03T20:05:01.018Z,61.00
2022-08-03T20:07:32.196Z,61.00
2022-08-03T20:10:01.449Z,61.00
2022-08-03T20:12:39.238Z,61.00
2022-08-03T20:15:08.962Z,61.00
2022-08-03T20:17:55.254Z,61.10
2022-08-03T20:20:27.541Z,61.20
2022-08-03T20:22:58.053Z,61.30
2022-08-03T20:25:38.869Z,61.40
2022-08-03T20:28:14.120Z,61.50
2022-08-03T20:30:47.182Z,61.50
2022-08-03T20:33:18.886Z,61.60
2022-08-03T20:35:49.248Z,61.60
2022-08-03T20:38:18.654Z,61.70
2022-08-03T20:40:47.280Z,61.70
2022-08-03T20:43:16.814Z,61.80
2022-08-03T20:46:00.971Z,61.90
2022-08-03T20:48:36.583Z,61.90
2022-08-03T20:53:59.854Z,62.00
2022-08-03T20:56:33.706Z,62.10
2022-08-03T20:59:05.176Z,62.10
2022-08-03T21:01:36.218Z,62.20
2022-08-03T21:04:07.409Z,62.20
2022-08-03T21:06:45.562Z,62.20
2022-08-03T21:09:25.142Z,62.20
2022-08-03T21:12:12.946Z,62.30
2022-08-03T21:13:01.364Z,63.30
2022-08-03T21:13:07.508Z,61.90
2022-08-03T21:14:52.339Z,62.30
2022-08-03T21:17:38.333Z,63.20
2022-08-03T21:20:09.469Z,62.50
2022-08-03T21:22:39.095Z,62.50
2022-08-03T21:25:09.376Z,62.60
2022-08-03T21:27:38.548Z,62.60
2022-08-03T21:30:10.956Z,62.70
2022-08-03T21:32:40.210Z,62.70
2022-08-03T21:35:10.913Z,62.70
2022-08-03T21:37:39.877Z,62.70
2022-08-03T21:40:09.419Z,62.70
2022-08-03T21:42:37.413Z,62.80
2022-08-03T21:45:08.461Z,62.80
2022-08-03T21:47:38.564Z,62.80
2022-08-03T21:50:09.802Z,62.80
2022-08-03T21:52:44.003Z,62.80
2022-08-03T21:55:20.307Z,62.80
2022-08-03T21:57:54.499Z,62.80
2022-08-03T22:00:24.365Z,62.80
2022-08-03T22:02:55.516Z,62.80
2022-08-03T22:05:28.990Z,62.90
2022-08-03T22:08:11.790Z,62.90
2022-08-03T22:10:40.489Z,62.80
2022-08-03T22:13:08.466Z,62.90
2022-08-03T22:15:37.598Z,62.90
2022-08-03T22:18:05.975Z,62.90
2022-08-03T22:20:33.831Z,62.90
2022-08-03T22:23:03.294Z,62.90
2022-08-03T22:25:32.488Z,62.90
2022-08-03T22:28:02.938Z,62.90
2022-08-03T22:30:31.445Z,62.90
2022-08-03T22:33:02.205Z,62.90
2022-08-03T22:35:33.128Z,62.90
2022-08-03T22:38:15.528Z,62.90
2022-08-03T22:40:43.540Z,62.90
2022-08-03T22:43:11.669Z,63.00
2022-08-03T22:46:06.206Z,63.00
2022-08-03T22:48:32.460Z,63.00
2022-08-03T22:51:01.784Z,63.00
2022-08-03T22:53:29.949Z,63.10
2022-08-03T22:55:58.281Z,63.10
2022-08-03T22:58:26.072Z,63.10
2022-08-03T23:00:57.305Z,63.10
2022-08-03T23:03:59.782Z,63.10
2022-08-03T23:06:22.482Z,63.10
2022-08-03T23:08:51.817Z,63.10
2022-08-03T23:11:21.809Z,63.10
2022-08-03T23:13:53.656Z,63.20
2022-08-03T23:16:28.888Z,63.20
2022-08-03T23:18:59.898Z,63.10
2022-08-03T23:21:53.365Z,63.20
2022-08-03T23:24:30.127Z,63.20
2022-08-03T23:26:59.187Z,63.20
2022-08-03T23:29:29.426Z,63.20
2022-08-03T23:31:58.309Z,63.20
2022-08-03T23:34:46.466Z,63.20
2022-08-03T23:37:15.351Z,63.20
2022-08-03T23:39:46.886Z,63.20
2022-08-03T23:42:17.794Z,63.30
2022-08-03T23:44:46.574Z,63.30
2022-08-03T23:47:15.332Z,63.30
2022-08-03T23:49:44.957Z,63.30
2022-08-03T23:52:19.935Z,63.20
2022-08-03T23:55:04.804Z,63.30
2022-08-03T23:57:40.780Z,63.20
